createdAt,value
2018-01-07T00:00:09.195Z,97920.34
2018-01-07T00:01:12.854Z,97927.31
2018-01-07T00:02:16.289Z,97922.08
2018-01-07T00:03:19.332Z,97928.66
2018-01-07T00:04:22.531Z,97926.53
2018-01-07T00:05:26.281Z,97931.38
2018-01-07T00:06:29.888Z,97927.69
2018-01-07T00:08:48.930Z,97923.62
2018-01-07T00:09:52.001Z,97930.98
2018-01-07T00:10:55.065Z,97930.61
2018-01-07T00:11:58.937Z,97935.83
2018-01-07T00:13:02.014Z,97929.84
2018-01-07T00:14:04.992Z,97930.80
2018-01-07T00:15:08.129Z,97927.94
2018-01-07T00:16:12.357Z,97930.26
2018-01-07T00:17:19.326Z,97932.34
2018-01-07T00:18:27.010Z,97932.34
2018-01-07T00:19:33.070Z,97927.31
2018-01-07T00:20:39.964Z,97932.74
2018-01-07T00:21:46.208Z,97929.09
2018-01-07T00:22:52.466Z,97929.88
2018-01-07T00:24:00.439Z,97928.52
2018-01-07T00:25:07.193Z,97936.84
2018-01-07T00:26:13.182Z,97929.25
2018-01-07T00:27:20.441Z,97931.77
2018-01-07T00:28:26.434Z,97933.56
2018-01-07T00:29:33.398Z,97932.98
2018-01-07T00:30:39.756Z,97932.78
2018-01-07T00:31:45.545Z,97936.27
2018-01-07T00:32:50.297Z,97946.72
2018-01-07T00:33:54.845Z,97938.01
2018-01-07T00:35:00.208Z,97941.89
2018-01-07T00:36:05.746Z,97942.27
2018-01-07T00:37:11.405Z,97945.94
2018-01-07T00:38:14.701Z,97945.91
2018-01-07T00:39:17.864Z,97942.22
2018-01-07T00:40:21.894Z,97949.77
2018-01-07T00:41:27.432Z,97952.88
2018-01-07T00:42:30.892Z,97956.16
2018-01-07T00:43:34.200Z,97957.36
2018-01-07T00:44:37.198Z,97954.47
2018-01-07T00:45:40.164Z,97958.73
2018-01-07T00:46:43.578Z,97951.76
2018-01-07T00:47:48.183Z,97955.82
2018-01-07T00:48:53.619Z,97957.02
2018-01-07T00:49:58.589Z,97956.21
2018-01-07T00:51:02.351Z,97964.34
2018-01-07T00:52:05.886Z,97961.81
2018-01-07T00:53:11.856Z,97965.88
2018-01-07T00:54:15.874Z,97971.30
2018-01-07T00:55:19.151Z,97969.56
2018-01-07T00:56:22.100Z,97977.50
2018-01-07T00:57:25.356Z,97973.44
2018-01-07T00:58:29.435Z,97972.89
2018-01-07T00:59:32.591Z,97983.50
2018-01-07T01:00:35.553Z,97980.83
2018-01-07T01:01:38.973Z,97980.63
2018-01-07T01:02:41.978Z,97977.89
2018-01-07T01:03:45.150Z,97987.80
2018-01-07T01:04:48.239Z,97986.83
2018-01-07T01:05:51.198Z,97991.63
2018-01-07T01:06:54.141Z,97989.50
2018-01-07T01:07:57.530Z,97992.22
2018-01-07T01:09:00.477Z,97990.28
2018-01-07T01:10:03.519Z,97999.38
2018-01-07T01:11:06.419Z,98000.95
2018-01-07T01:12:09.370Z,97994.19
2018-01-07T01:13:12.326Z,97995.34
2018-01-07T01:14:15.779Z,97997.25
2018-01-07T01:15:19.366Z,97999.38
2018-01-07T01:16:22.394Z,98004.22
2018-01-07T01:17:25.400Z,98006.34
2018-01-07T01:18:29.069Z,98004.80
2018-01-07T01:19:32.022Z,98007.73
2018-01-07T01:20:35.361Z,98014.28
2018-01-07T01:21:39.470Z,98011.77
2018-01-07T01:22:42.494Z,98014.12
2018-01-07T01:23:45.531Z,98013.54
2018-01-07T01:24:48.580Z,98019.13
2018-01-07T01:25:51.610Z,98022.25
2018-01-07T01:26:55.191Z,98023.97
2018-01-07T01:27:58.157Z,98020.70
2018-01-07T01:29:01.099Z,98022.05
2018-01-07T01:30:04.032Z,98021.86
2018-01-07T01:31:06.929Z,98023.61
2018-01-07T01:32:09.850Z,98029.80
2018-01-07T01:33:12.986Z,98029.19
2018-01-07T01:34:16.117Z,98029.98
2018-01-07T01:35:18.973Z,98034.63
2018-01-07T01:36:21.800Z,98028.44
2018-01-07T01:37:24.650Z,98033.06
2018-01-07T01:38:27.587Z,98033.86
2018-01-07T01:39:30.966Z,98034.64
2018-01-07T01:40:33.963Z,98039.28
2018-01-07T01:41:36.899Z,98041.98
2018-01-07T01:42:39.834Z,98038.89
2018-01-07T01:43:42.821Z,98046.23
2018-01-07T01:44:45.754Z,98053.39
2018-01-07T01:45:48.977Z,98053.39
2018-01-07T01:46:51.882Z,98049.92
2018-01-07T01:47:54.799Z,98048.18
2018-01-07T01:48:57.732Z,98051.47
2018-01-07T01:50:00.752Z,98061.52
2018-01-07T01:51:03.675Z,98057.28
2018-01-07T01:52:07.108Z,98058.63
2018-01-07T01:53:10.020Z,98059.80
2018-01-07T01:54:12.947Z,98063.47
2018-01-07T01:55:15.858Z,98061.94
2018-01-07T01:56:18.783Z,98058.83
2018-01-07T01:57:21.693Z,98065.41
2018-01-07T01:58:24.975Z,98066.76
2018-01-07T01:59:27.968Z,98060.59
2018-01-07T02:00:30.916Z,98071.42
2018-01-07T02:01:33.919Z,98074.31
2018-01-07T02:02:36.863Z,98077.42
2018-01-07T02:03:39.802Z,98077.04
2018-01-07T02:04:43.120Z,98078.97
2018-01-07T02:05:46.052Z,98085.16
2018-01-07T02:06:49.009Z,98086.13
2018-01-07T02:07:51.988Z,98086.89
2018-01-07T02:08:54.942Z,98083.99
2018-01-07T02:09:57.881Z,98088.24
2018-01-07T02:11:01.052Z,98089.41
2018-01-07T02:12:03.868Z,98090.95
2018-01-07T02:13:06.773Z,98091.14
2018-01-07T02:14:09.620Z,98100.65
2018-01-07T02:15:12.434Z,98095.80
2018-01-07T02:16:15.272Z,98096.20
2018-01-07T02:17:18.378Z,98096.77
2018-01-07T02:18:21.242Z,98095.80
2018-01-07T02:19:24.093Z,98101.59
2018-01-07T02:20:26.899Z,98097.34
2018-01-07T02:21:29.736Z,98096.97
2018-01-07T02:22:32.602Z,98105.28
2018-01-07T02:23:35.762Z,98106.84
2018-01-07T02:24:38.594Z,98104.30
2018-01-07T02:25:41.398Z,98104.50
2018-01-07T02:26:44.487Z,98104.70
2018-01-07T02:27:47.406Z,98109.14
2018-01-07T02:28:50.294Z,98114.55
2018-01-07T02:29:53.215Z,98111.09
2018-01-07T02:30:56.149Z,98113.58
2018-01-07T02:31:59.097Z,98116.89
2018-01-07T02:33:02.032Z,98124.45
2018-01-07T02:34:04.957Z,98116.31
2018-01-07T02:35:07.894Z,98121.72
2018-01-07T02:36:11.038Z,98120.18
2018-01-07T02:37:15.637Z,98119.02
2018-01-07T02:38:18.454Z,98122.30
2018-01-07T02:39:21.308Z,98125.98
2018-01-07T02:40:24.130Z,98125.59
2018-01-07T02:41:27.055Z,98131.20
2018-01-07T02:42:30.283Z,98130.62
2018-01-07T02:43:33.224Z,98127.34
2018-01-07T02:44:36.087Z,98130.03
2018-01-07T02:45:38.963Z,98131.41
2018-01-07T02:46:41.935Z,98137.02
2018-01-07T02:47:44.907Z,98136.25
2018-01-07T02:48:48.051Z,98139.53
2018-01-07T02:49:51.023Z,98138.38
2018-01-07T02:50:53.970Z,98135.85
2018-01-07T02:51:56.913Z,98140.31
2018-01-07T02:52:59.847Z,98144.55
2018-01-07T02:54:02.753Z,98135.86
2018-01-07T02:55:05.955Z,98131.40
2018-01-07T02:56:08.832Z,98142.05
2018-01-07T02:57:11.701Z,98145.14
2018-01-07T02:58:14.656Z,98147.67
2018-01-07T02:59:17.553Z,98148.81
2018-01-07T03:00:20.421Z,98146.68
2018-01-07T03:01:23.594Z,98146.69
2018-01-07T03:02:26.532Z,98147.45
2018-01-07T03:03:29.543Z,98149.58
2018-01-07T03:04:32.498Z,98153.45
2018-01-07T03:05:35.461Z,98154.42
2018-01-07T03:06:38.367Z,98155.38
2018-01-07T03:07:41.673Z,98151.14
2018-01-07T03:08:44.611Z,98165.25
2018-01-07T03:09:47.534Z,98156.75
2018-01-07T03:10:50.474Z,98162.55
2018-01-07T03:11:53.382Z,98158.09
2018-01-07T03:12:56.402Z,98157.31
2018-01-07T03:13:59.676Z,98153.84
2018-01-07T03:15:02.579Z,98156.36
2018-01-07T03:16:05.603Z,98154.81
2018-01-07T03:17:08.676Z,98156.55
2018-01-07T03:18:11.563Z,98156.55
2018-01-07T03:19:14.440Z,98157.13
2018-01-07T03:20:17.780Z,98159.85
2018-01-07T03:21:20.875Z,98156.73
2018-01-07T03:22:23.854Z,98151.50
2018-01-07T03:23:26.757Z,98159.84
2018-01-07T03:24:29.621Z,98155.97
2018-01-07T03:25:32.560Z,98156.55
2018-01-07T03:26:35.820Z,98157.13
2018-01-07T03:27:38.852Z,98156.55
2018-01-07T03:28:41.793Z,98154.60
2018-01-07T03:29:44.897Z,98157.30
2018-01-07T03:30:47.769Z,98157.89
2018-01-07T03:31:50.671Z,98157.28
2018-01-07T03:32:55.284Z,98167.00
2018-01-07T03:33:58.231Z,98165.46
2018-01-07T03:35:01.214Z,98163.69
2018-01-07T03:36:04.148Z,98163.48
2018-01-07T03:37:07.105Z,98164.83
2018-01-07T03:38:10.036Z,98169.69
2018-01-07T03:39:14.221Z,98162.14
2018-01-07T03:40:17.158Z,98167.17
2018-01-07T03:41:20.105Z,98177.23
2018-01-07T03:42:23.024Z,98170.47
2018-01-07T03:43:25.936Z,98183.04
2018-01-07T03:44:28.889Z,98181.11
2018-01-07T03:45:32.236Z,98173.17
2018-01-07T03:46:35.153Z,98182.27
2018-01-07T03:47:38.616Z,98172.78
2018-01-07T03:49:46.870Z,98183.42
2018-01-07T03:50:49.776Z,98178.97
2018-01-07T03:51:52.997Z,98173.16
2018-01-07T03:52:55.923Z,98176.27
2018-01-07T03:53:58.848Z,98172.95
2018-01-07T03:55:01.784Z,98169.88
2018-01-07T03:56:05.365Z,98175.11
2018-01-07T03:57:08.339Z,98179.89
2018-01-07T03:58:11.642Z,98180.31
2018-01-07T03:59:14.559Z,98182.84
2018-01-07T04:00:17.468Z,98176.83
2018-01-07T04:01:21.316Z,98174.72
2018-01-07T04:02:25.413Z,98181.88
2018-01-07T04:03:28.351Z,98174.70
2018-01-07T04:04:31.285Z,98179.36
2018-01-07T04:05:34.236Z,98175.11
2018-01-07T04:06:37.164Z,98172.94
2018-01-07T04:07:40.107Z,98177.97
2018-01-07T04:08:43.020Z,98177.95
2018-01-07T04:09:46.284Z,98181.44
2018-01-07T04:10:49.210Z,98188.44
2018-01-07T04:11:52.176Z,98183.77
2018-01-07T04:12:56.287Z,98183.78
2018-01-07T04:14:00.106Z,98190.00
2018-01-07T04:15:02.952Z,98182.24
2018-01-07T04:16:06.158Z,98190.14
2018-01-07T04:17:08.991Z,98186.30
2018-01-07T04:18:11.889Z,98192.67
2018-01-07T04:19:14.856Z,98188.39
2018-01-07T04:20:17.798Z,98194.00
2018-01-07T04:21:20.767Z,98188.02
2018-01-07T04:22:24.837Z,98186.87
2018-01-07T04:23:27.799Z,98188.59
2018-01-07T04:24:30.707Z,98187.86
2018-01-07T04:25:33.615Z,98187.07
2018-01-07T04:26:36.529Z,98184.57
2018-01-07T04:27:39.494Z,98188.45
2018-01-07T04:28:42.750Z,98182.45
2018-01-07T04:29:45.666Z,98187.09
2018-01-07T04:30:48.602Z,98186.67
2018-01-07T04:31:52.311Z,98196.56
2018-01-07T04:32:55.230Z,98193.45
2018-01-07T04:33:58.152Z,98196.54
2018-01-07T04:35:01.260Z,98199.80
2018-01-07T04:36:04.088Z,98202.14
2018-01-07T04:37:06.900Z,98206.98
2018-01-07T04:38:09.813Z,98214.12
2018-01-07T04:39:12.838Z,98207.19
2018-01-07T04:40:15.730Z,98209.09
2018-01-07T04:41:18.885Z,98212.17
2018-01-07T04:42:22.048Z,98208.72
2018-01-07T04:43:26.044Z,98210.09
2018-01-07T04:44:29.121Z,98208.19
2018-01-07T04:45:32.039Z,98208.55
2018-01-07T04:46:35.017Z,98216.67
2018-01-07T04:47:39.363Z,98220.36
2018-01-07T04:48:42.229Z,98222.88
2018-01-07T04:49:45.908Z,98221.14
2018-01-07T04:50:48.852Z,98222.45
2018-01-07T04:51:51.742Z,98227.69
2018-01-07T04:52:54.664Z,98230.02
2018-01-07T04:53:58.091Z,98228.86
2018-01-07T04:55:01.151Z,98226.34
2018-01-07T04:56:04.392Z,98227.92
2018-01-07T04:57:07.328Z,98228.65
2018-01-07T04:58:10.261Z,98233.86
2018-01-07T04:59:13.165Z,98235.20
2018-01-07T05:00:16.446Z,98227.30
2018-01-07T05:01:19.554Z,98228.05
2018-01-07T05:02:22.494Z,98236.59
2018-01-07T05:03:25.471Z,98234.84
2018-01-07T05:04:28.398Z,98235.59
2018-01-07T05:05:31.347Z,98237.77
2018-01-07T05:06:34.540Z,98237.98
2018-01-07T05:07:37.530Z,98231.55
2018-01-07T05:08:40.441Z,98228.84
2018-01-07T05:09:43.397Z,98231.95
2018-01-07T05:10:46.318Z,98229.45
2018-01-07T05:11:49.258Z,98227.47
2018-01-07T05:12:52.503Z,98224.56
2018-01-07T05:13:55.445Z,98222.26
2018-01-07T05:16:12.432Z,98240.37
2018-01-07T05:17:15.406Z,98234.45
2018-01-07T05:18:18.287Z,98242.78
2018-01-07T05:19:21.526Z,98243.97
2018-01-07T05:20:24.435Z,98241.22
2018-01-07T05:21:27.321Z,98251.84
2018-01-07T05:22:30.309Z,98246.66
2018-01-07T05:23:33.226Z,98244.31
2018-01-07T05:24:36.157Z,98253.00
2018-01-07T05:25:39.438Z,98251.84
2018-01-07T05:26:42.413Z,98254.16
2018-01-07T05:27:45.361Z,98251.83
2018-01-07T05:28:48.287Z,98259.73
2018-01-07T05:29:51.193Z,98255.50
2018-01-07T05:30:54.094Z,98261.90
2018-01-07T05:31:58.055Z,98264.98
2018-01-07T05:33:00.953Z,98257.03
2018-01-07T05:34:03.873Z,98264.37
2018-01-07T05:35:06.803Z,98268.86
2018-01-07T05:36:09.759Z,98273.72
2018-01-07T05:37:13.076Z,98266.35
2018-01-07T05:38:16.648Z,98269.83
2018-01-07T05:39:19.584Z,98277.70
2018-01-07T05:40:22.566Z,98272.91
2018-01-07T05:41:25.441Z,98276.75
2018-01-07T05:42:28.360Z,98271.37
2018-01-07T05:43:31.362Z,98276.77
2018-01-07T05:44:34.580Z,98290.47
2018-01-07T05:45:37.492Z,98282.72
2018-01-07T05:46:40.399Z,98288.95
2018-01-07T05:47:44.745Z,98294.24
2018-01-07T05:48:47.847Z,98304.65
2018-01-07T05:49:50.765Z,98306.38
2018-01-07T05:50:54.112Z,98297.88
2018-01-07T05:51:57.035Z,98306.95
2018-01-07T05:52:59.857Z,98306.72
2018-01-07T05:54:02.673Z,98308.41
2018-01-07T05:55:05.520Z,98308.84
2018-01-07T05:56:08.448Z,98307.30
2018-01-07T05:57:11.761Z,98314.86
2018-01-07T05:58:14.679Z,98310.95
2018-01-07T05:59:17.644Z,98318.69
2018-01-07T06:00:20.593Z,98314.88
2018-01-07T06:01:23.523Z,98310.78
2018-01-07T06:02:26.423Z,98307.26
2018-01-07T06:03:29.788Z,98309.59
2018-01-07T06:04:32.703Z,98315.02
2018-01-07T06:05:36.367Z,98307.24
2018-01-07T06:06:39.556Z,98306.12
2018-01-07T06:07:42.466Z,98315.41
2018-01-07T06:08:45.411Z,98314.54
2018-01-07T06:09:48.710Z,98313.84
2018-01-07T06:10:51.627Z,98317.27
2018-01-07T06:11:54.636Z,98319.19
2018-01-07T06:12:57.532Z,98311.67
2018-01-07T06:15:23.676Z,98327.39
2018-01-07T06:17:40.092Z,98332.63
2018-01-07T06:18:43.212Z,98323.23
2018-01-07T06:19:46.107Z,98329.42
2018-01-07T06:20:49.127Z,98332.15
2018-01-07T06:21:52.337Z,98343.28
2018-01-07T06:22:55.421Z,98333.63
2018-01-07T06:23:58.326Z,98342.70
2018-01-07T06:25:01.176Z,98344.31
2018-01-07T06:26:04.084Z,98340.83
2018-01-07T06:27:06.950Z,98350.42
2018-01-07T06:28:10.093Z,98358.72
2018-01-07T06:29:12.910Z,98361.67
2018-01-07T06:30:15.725Z,98367.48
2018-01-07T06:31:18.568Z,98370.51
2018-01-07T06:32:21.387Z,98366.06
2018-01-07T06:33:24.228Z,98376.02
2018-01-07T06:34:27.496Z,98377.31
2018-01-07T06:35:30.300Z,98382.36
2018-01-07T06:36:33.243Z,98383.17
2018-01-07T06:37:36.173Z,98387.47
2018-01-07T06:38:39.133Z,98390.68
2018-01-07T06:39:42.064Z,98390.09
2018-01-07T06:40:45.354Z,98389.09
2018-01-07T06:41:48.271Z,98383.84
2018-01-07T06:42:51.094Z,98393.90
2018-01-07T06:43:53.905Z,98391.78
2018-01-07T06:44:56.749Z,98401.42
2018-01-07T06:45:59.698Z,98402.08
2018-01-07T06:47:03.037Z,98406.15
2018-01-07T06:48:05.956Z,98405.24
2018-01-07T06:49:08.891Z,98403.15
2018-01-07T06:50:11.842Z,98402.00
2018-01-07T06:51:14.839Z,98414.73
2018-01-07T06:52:17.783Z,98416.22
2018-01-07T06:53:21.104Z,98409.06
2018-01-07T06:54:24.034Z,98418.46
2018-01-07T06:55:26.943Z,98417.09
2018-01-07T06:56:29.873Z,98413.94
2018-01-07T06:57:32.808Z,98420.28
2018-01-07T06:58:35.618Z,98419.39
2018-01-07T06:59:38.867Z,98423.52
2018-01-07T07:00:41.714Z,98416.19
2018-01-07T07:01:45.017Z,98421.25
2018-01-07T07:02:47.882Z,98421.44
2018-01-07T07:03:50.814Z,98424.41
2018-01-07T07:04:53.740Z,98429.02
2018-01-07T07:05:57.031Z,98434.88
2018-01-07T07:06:59.979Z,98432.19
2018-01-07T07:08:02.899Z,98437.75
2018-01-07T07:09:05.802Z,98443.92
2018-01-07T07:10:08.711Z,98446.68
2018-01-07T07:11:11.647Z,98437.57
2018-01-07T07:12:15.034Z,98440.73
2018-01-07T07:13:19.073Z,98448.42
2018-01-07T07:14:21.982Z,98446.70
2018-01-07T07:15:24.962Z,98440.56
2018-01-07T07:16:27.853Z,98445.53
2018-01-07T07:17:30.777Z,98450.41
2018-01-07T07:18:34.172Z,98455.64
2018-01-07T07:19:37.081Z,98455.47
2018-01-07T07:20:40.005Z,98462.20
2018-01-07T07:21:42.959Z,98452.66
2018-01-07T07:22:45.884Z,98458.28
2018-01-07T07:23:48.828Z,98455.59
2018-01-07T07:24:52.211Z,98463.95
2018-01-07T07:25:55.116Z,98460.86
2018-01-07T07:26:58.080Z,98465.25
2018-01-07T07:28:01.933Z,98470.61
2018-01-07T07:29:04.868Z,98476.09
2018-01-07T07:30:08.646Z,98481.72
2018-01-07T07:31:11.898Z,98480.29
2018-01-07T07:32:15.112Z,98480.82
2018-01-07T07:33:18.060Z,98488.10
2018-01-07T07:34:21.130Z,98484.58
2018-01-07T07:35:24.060Z,98496.50
2018-01-07T07:36:27.018Z,98494.63
2018-01-07T07:37:30.211Z,98500.83
2018-01-07T07:38:33.189Z,98507.49
2018-01-07T07:39:36.115Z,98515.04
2018-01-07T07:40:39.131Z,98514.01
2018-01-07T07:41:42.080Z,98515.17
2018-01-07T07:42:45.035Z,98517.38
2018-01-07T07:43:48.256Z,98513.01
2018-01-07T07:44:51.182Z,98513.92
2018-01-07T07:45:54.079Z,98513.34
2018-01-07T07:46:56.989Z,98517.73
2018-01-07T07:47:59.894Z,98514.89
2018-01-07T07:49:03.152Z,98523.88
2018-01-07T07:50:06.512Z,98522.16
2018-01-07T07:51:09.418Z,98528.34
2018-01-07T07:52:12.461Z,98530.00
2018-01-07T07:53:15.417Z,98542.40
2018-01-07T07:54:18.359Z,98536.20
2018-01-07T07:55:21.674Z,98527.61
2018-01-07T07:56:24.898Z,98539.62
2018-01-07T07:57:27.804Z,98539.41
2018-01-07T07:58:30.747Z,98548.29
2018-01-07T07:59:33.645Z,98544.71
2018-01-07T08:00:36.587Z,98552.59
2018-01-07T08:01:39.526Z,98556.95
2018-01-07T08:02:43.002Z,98556.67
2018-01-07T08:03:45.898Z,98563.40
2018-01-07T08:04:48.879Z,98559.61
2018-01-07T08:05:51.827Z,98564.25
2018-01-07T08:06:54.799Z,98564.82
2018-01-07T08:07:57.720Z,98564.20
2018-01-07T08:09:01.046Z,98556.11
2018-01-07T08:10:03.995Z,98562.20
2018-01-07T08:11:06.935Z,98565.25
2018-01-07T08:12:09.957Z,98558.86
2018-01-07T08:13:12.891Z,98566.03
2018-01-07T08:14:15.806Z,98561.61
2018-01-07T08:15:19.045Z,98566.55
2018-01-07T08:16:21.968Z,98575.11
2018-01-07T08:17:24.886Z,98568.99
2018-01-07T08:18:27.859Z,98565.47
2018-01-07T08:19:31.188Z,98561.86
2018-01-07T08:20:34.648Z,98560.92
2018-01-07T08:21:38.128Z,98557.70
2018-01-07T08:22:41.067Z,98565.45
2018-01-07T08:23:44.124Z,98562.57
2018-01-07T08:24:47.067Z,98568.63
2018-01-07T08:25:49.932Z,98559.86
2018-01-07T08:26:52.737Z,98559.22
2018-01-07T08:27:55.881Z,98564.16
2018-01-07T08:28:58.767Z,98568.77
2018-01-07T08:30:01.607Z,98571.41
2018-01-07T08:31:05.491Z,98572.50
2018-01-07T08:32:08.448Z,98566.89
2018-01-07T08:33:11.353Z,98569.31
2018-01-07T08:34:14.683Z,98577.55
2018-01-07T08:35:18.319Z,98568.74
2018-01-07T08:36:21.266Z,98574.59
2018-01-07T08:37:24.185Z,98578.52
2018-01-07T08:38:27.051Z,98581.19
2018-01-07T08:39:29.939Z,98573.59
2018-01-07T08:40:33.280Z,98581.22
2018-01-07T08:41:36.213Z,98579.50
2018-01-07T08:42:39.191Z,98585.52
2018-01-07T08:43:42.108Z,98580.09
2018-01-07T08:44:45.906Z,98585.33
2018-01-07T08:45:48.888Z,98588.32
2018-01-07T08:46:52.265Z,98576.53
2018-01-07T08:47:55.224Z,98591.80
2018-01-07T08:48:58.166Z,98589.02
2018-01-07T08:50:01.138Z,98590.06
2018-01-07T08:51:04.059Z,98596.05
2018-01-07T08:52:07.007Z,98588.14
2018-01-07T08:53:10.216Z,98592.45
2018-01-07T08:54:13.136Z,98596.52
2018-01-07T08:55:16.129Z,98601.64
2018-01-07T08:56:19.062Z,98601.82
2018-01-07T08:57:22.001Z,98594.06
2018-01-07T08:58:24.902Z,98596.47
2018-01-07T08:59:28.129Z,98598.97
2018-01-07T09:00:31.101Z,98606.42
2018-01-07T09:01:34.881Z,98596.33
2018-01-07T09:02:37.840Z,98597.55
2018-01-07T09:03:40.733Z,98602.16
2018-01-07T09:04:43.694Z,98611.20
2018-01-07T09:05:46.902Z,98612.66
2018-01-07T09:06:49.868Z,98619.52
2018-01-07T09:07:52.773Z,98619.28
2018-01-07T09:08:55.864Z,98617.69
2018-01-07T09:09:58.799Z,98620.78
2018-01-07T09:11:01.724Z,98620.98
2018-01-07T09:12:04.915Z,98619.92
2018-01-07T09:13:07.827Z,98623.20
2018-01-07T09:14:10.750Z,98635.55
2018-01-07T09:15:13.684Z,98643.03
2018-01-07T09:16:16.610Z,98640.19
2018-01-07T09:17:19.574Z,98636.70
2018-01-07T09:18:22.823Z,98635.45
2018-01-07T09:19:25.810Z,98640.58
2018-01-07T09:20:28.959Z,98636.19
2018-01-07T09:21:31.976Z,98639.07
2018-01-07T09:22:34.928Z,98646.91
2018-01-07T09:23:37.895Z,98646.05
2018-01-07T09:24:41.095Z,98644.37
2018-01-07T09:25:44.065Z,98648.69
2018-01-07T09:26:47.005Z,98648.35
2018-01-07T09:27:49.940Z,98646.19
2018-01-07T09:28:52.938Z,98652.05
2018-01-07T09:29:55.937Z,98651.22
2018-01-07T09:30:59.222Z,98647.52
2018-01-07T09:32:02.139Z,98649.73
2018-01-07T09:33:05.137Z,98650.39
2018-01-07T09:34:08.144Z,98653.33
2018-01-07T09:35:11.355Z,98656.91
2018-01-07T09:36:14.623Z,98652.11
2018-01-07T09:37:17.964Z,98655.41
2018-01-07T09:38:20.891Z,98659.70
2018-01-07T09:39:23.812Z,98653.22
2018-01-07T09:40:26.756Z,98654.47
2018-01-07T09:41:29.658Z,98651.56
2018-01-07T09:42:32.595Z,98655.12
2018-01-07T09:43:35.875Z,98647.23
2018-01-07T09:44:38.759Z,98646.78
2018-01-07T09:45:41.646Z,98650.70
2018-01-07T09:46:44.565Z,98657.73
2018-01-07T09:47:47.528Z,98645.13
2018-01-07T09:48:50.523Z,98659.67
2018-01-07T09:49:53.801Z,98658.14
2018-01-07T09:50:56.768Z,98656.27
2018-01-07T09:51:59.719Z,98674.09
2018-01-07T09:53:03.436Z,98667.44
2018-01-07T09:54:06.832Z,98672.50
2018-01-07T09:55:10.071Z,98671.95
2018-01-07T09:56:13.618Z,98674.02
2018-01-07T09:57:16.836Z,98672.45
2018-01-07T09:58:19.846Z,98669.88
2018-01-07T09:59:22.680Z,98672.91
2018-01-07T10:00:25.701Z,98674.16
2018-01-07T10:01:28.806Z,98666.95
2018-01-07T10:02:32.060Z,98672.48
2018-01-07T10:03:35.732Z,98670.76
2018-01-07T10:04:39.518Z,98666.38
2018-01-07T10:05:42.633Z,98663.42
2018-01-07T10:06:45.660Z,98660.92
2018-01-07T10:07:48.591Z,98662.88
2018-01-07T10:08:52.095Z,98656.11
2018-01-07T10:09:55.283Z,98660.09
2018-01-07T10:10:58.224Z,98657.69
2018-01-07T10:12:01.163Z,98661.34
2018-01-07T10:13:04.107Z,98652.73
2018-01-07T10:14:07.098Z,98655.77
2018-01-07T10:15:10.311Z,98661.05
2018-01-07T10:16:13.261Z,98660.62
2018-01-07T10:17:16.179Z,98662.28
2018-01-07T10:18:19.123Z,98663.66
2018-01-07T10:19:22.044Z,98667.67
2018-01-07T10:20:24.983Z,98666.25
2018-01-07T10:21:29.000Z,98663.39
2018-01-07T10:22:31.936Z,98666.78
2018-01-07T10:23:34.871Z,98673.20
2018-01-07T10:24:37.796Z,98665.98
2018-01-07T10:25:40.719Z,98673.88
2018-01-07T10:26:43.708Z,98681.77
2018-01-07T10:27:46.946Z,98675.91
2018-01-07T10:28:49.853Z,98689.91
2018-01-07T10:29:52.765Z,98672.80
2018-01-07T10:30:55.668Z,98682.06
2018-01-07T10:31:58.526Z,98674.47
2018-01-07T10:33:01.380Z,98682.59
2018-01-07T10:34:04.583Z,98678.04
2018-01-07T10:35:07.469Z,98688.88
2018-01-07T10:36:10.408Z,98688.28
2018-01-07T10:37:13.362Z,98696.67
2018-01-07T10:38:16.298Z,98685.30
2018-01-07T10:39:19.229Z,98687.25
2018-01-07T10:40:22.458Z,98688.55
2018-01-07T10:41:25.414Z,98682.93
2018-01-07T10:42:28.326Z,98689.03
2018-01-07T10:43:31.311Z,98689.44
2018-01-07T10:44:34.233Z,98687.48
2018-01-07T10:45:37.163Z,98688.99
2018-01-07T10:46:40.397Z,98684.82
2018-01-07T10:47:43.301Z,98684.87
2018-01-07T10:48:46.185Z,98686.61
2018-01-07T10:49:49.046Z,98687.78
2018-01-07T10:50:51.927Z,98685.83
2018-01-07T10:51:54.836Z,98688.84
2018-01-07T10:52:58.051Z,98695.46
2018-01-07T10:54:01.987Z,98691.73
2018-01-07T10:55:04.928Z,98685.28
2018-01-07T10:56:07.888Z,98678.62
2018-01-07T10:57:10.804Z,98686.54
2018-01-07T10:58:13.759Z,98688.75
2018-01-07T10:59:17.168Z,98690.67
2018-01-07T11:00:20.092Z,98684.98
2018-01-07T11:01:26.898Z,98686.47
2018-01-07T11:02:35.508Z,98691.17
2018-01-07T11:03:38.491Z,98690.42
2018-01-07T11:04:41.455Z,98692.62
2018-01-07T11:05:44.644Z,98689.48
2018-01-07T11:06:47.527Z,98697.92
2018-01-07T11:07:50.540Z,98690.52
2018-01-07T11:08:53.545Z,98694.72
2018-01-07T11:09:56.500Z,98695.95
2018-01-07T11:10:59.454Z,98692.73
2018-01-07T11:12:03.117Z,98697.67
2018-01-07T11:13:06.274Z,98693.08
2018-01-07T11:14:09.266Z,98705.04
2018-01-07T11:15:12.629Z,98690.97
2018-01-07T11:16:15.572Z,98689.13
2018-01-07T11:17:18.509Z,98685.77
2018-01-07T11:18:21.725Z,98684.19
2018-01-07T11:19:24.693Z,98693.03
2018-01-07T11:20:27.722Z,98688.46
2018-01-07T11:21:31.530Z,98687.32
2018-01-07T11:22:34.443Z,98687.63
2018-01-07T11:23:37.355Z,98689.23
2018-01-07T11:24:40.628Z,98691.82
2018-01-07T11:25:43.569Z,98690.34
2018-01-07T11:26:46.499Z,98697.37
2018-01-07T11:27:49.511Z,98694.37
2018-01-07T11:28:52.492Z,98697.72
2018-01-07T11:29:55.453Z,98688.72
2018-01-07T11:30:58.733Z,98692.21
2018-01-07T11:32:01.727Z,98693.70
2018-01-07T11:33:04.955Z,98689.94
2018-01-07T11:34:07.915Z,98692.20
2018-01-07T11:35:10.965Z,98697.80
2018-01-07T11:36:13.961Z,98689.87
2018-01-07T11:37:17.446Z,98694.73
2018-01-07T11:38:20.400Z,98692.77
2018-01-07T11:39:23.399Z,98696.27
2018-01-07T11:40:26.376Z,98695.48
2018-01-07T11:41:29.354Z,98701.30
2018-01-07T11:42:32.355Z,98699.95
2018-01-07T11:43:35.743Z,98703.12
2018-01-07T11:44:38.739Z,98704.77
2018-01-07T11:45:41.710Z,98702.48
2018-01-07T11:46:44.677Z,98706.14
2018-01-07T11:47:47.611Z,98709.64
2018-01-07T11:48:50.528Z,98707.28
2018-01-07T11:49:53.989Z,98708.33
2018-01-07T11:50:56.996Z,98713.50
2018-01-07T11:52:00.090Z,98714.08
2018-01-07T11:53:03.039Z,98704.85
2018-01-07T11:54:06.017Z,98712.71
2018-01-07T11:55:08.970Z,98717.60
2018-01-07T11:56:12.282Z,98713.60
2018-01-07T11:57:15.267Z,98705.47
2018-01-07T11:58:18.282Z,98713.04
2018-01-07T11:59:21.258Z,98711.33
2018-01-07T12:00:24.211Z,98713.86
2018-01-07T12:01:27.197Z,98711.39
2018-01-07T12:02:30.646Z,98713.46
2018-01-07T12:03:33.624Z,98709.66
2018-01-07T12:04:37.873Z,98707.61
2018-01-07T12:05:45.316Z,98714.52
2018-01-07T12:06:48.313Z,98709.84
2018-01-07T12:07:51.563Z,98709.74
2018-01-07T12:08:54.939Z,98709.84
2018-01-07T12:09:58.049Z,98709.64
2018-01-07T12:11:01.020Z,98701.55
2018-01-07T12:12:04.137Z,98705.41
2018-01-07T12:13:07.138Z,98697.33
2018-01-07T12:14:10.090Z,98701.34
2018-01-07T12:15:13.517Z,98697.48
2018-01-07T12:16:16.436Z,98688.93
2018-01-07T12:17:19.400Z,98691.95
2018-01-07T12:18:22.395Z,98698.11
2018-01-07T12:19:25.386Z,98690.94
2018-01-07T12:20:28.498Z,98688.98
2018-01-07T12:21:31.813Z,98682.95
2018-01-07T12:22:34.817Z,98690.98
2018-01-07T12:23:38.052Z,98697.02
2018-01-07T12:24:41.296Z,98699.05
2018-01-07T12:25:44.247Z,98687.41
2018-01-07T12:26:47.230Z,98678.95
2018-01-07T12:27:50.468Z,98697.27